Latest Coastal Weather Observations for King Island Airport

IDT60701

Issued at 8:02 pm EST Tuesday 31 May 2016 (issued every 10 minutes, with the page automatically refreshed every 10 minutes)

About coastal observations | Map of coastal stations | Coastal observations for TAS | Marine services | Other Formats
Station Details ID: 098017 Name: KING ISLAND AIRPORT Lat: -39.88 Lon: 143.88 Height: 37.0 m
Data from the previous 72 hours. | See also: Recent months at King Island Airport
Date/Time
EST
Temp

°C
Wind Pressure Rain
since 9am
mm
Weather Cloud Vis
km
Sea
Height
m
Swell
Dir
 
Speed
knots
Gust
knots
hPa Trend Height
m
Period
s
Dir
31/08:00pm 8.9 ENE 6 7 1029.6 - 0.0 - - 10 - - - -
31/07:30pm 9.5 ENE 6 8 1029.5 - 0.0 - - 10 - - - -
31/07:00pm 9.9 ENE 7 8 1029.4 - 0.0 - - 10 - - - -
31/06:30pm 10.3 ENE 6 7 1029.4 - 0.0 - - 10 - - - -
31/06:00pm 10.9 ENE 7 9 1029.1 - 0.0 - - 10 - - - -
31/05:30pm 11.6 ENE 9 12 1028.8 - 0.0 - - 10 - - - -
31/05:00pm 12.0 ENE 9 11 1028.7 - 0.0 - - 10 - - - -
31/04:30pm 12.9 ENE 11 16 1028.6 - 0.0 - - 10 - - - -
31/04:00pm 13.7 NE 11 16 1028.6 - 0.0 - - 10 - - - -
31/03:30pm 14.0 NE 12 17 1028.5 - 0.0 - - 10 - - - -
31/03:00pm 14.3 ENE 12 16 1028.4 - 0.0 - Mostly clear 10 - - - -
31/02:30pm 14.2 NE 13 18 1028.4 - 0.0 - Partly cloudy 10 - - - -
31/02:00pm 14.4 NE 13 17 1028.7 - 0.0 - Partly cloudy 10 - - - -
31/01:30pm 14.5 NE 12 16 1028.8 - 0.0 - Partly cloudy 10 - - - -
31/01:00pm 14.5 ENE 13 17 1028.9 - 0.0 - Partly cloudy 10 - - - -
31/12:30pm 14.7 NE 14 19 1029.2 - 0.0 - Partly cloudy 10 - - - -
31/12:00pm 14.2 NE 15 20 1029.4 - 0.0 - Mostly clear 10 - - - -
31/11:30am 13.5 NE 14 19 1029.8 - 0.0 - Partly cloudy 10 - - - -
31/11:00am 13.6 NE 14 19 1030.2 - 0.0 - Cloudy 10 - - - -
31/10:30am 13.2 NE 15 20 1030.3 - 0.0 - Partly cloudy 10 - - - -
31/10:00am 13.5 NE 12 17 1030.3 - 0.0 - Partly cloudy 10 - - - -
31/09:30am 12.9 ENE 10 14 1030.3 - 0.0 - - 10 - - - -
31/09:00am 11.9 ENE 7 9 1030.3 - 0.0 - Mostly clear 10 - - - -
31/08:30am 10.5 ENE 8 9 1030.0 - 0.0 - - 10 - - - -
31/08:00am 9.5 ENE 8 9 1029.9 - 0.0 - - 10 - - - -
31/07:30am 8.3 E 7 8 1029.7 - 0.0 - - 10 - - - -
31/07:00am 7.7 E 7 8 1029.5 - 0.0 - - 10 - - - -
31/06:30am 7.8 E 7 7 1029.3 - 0.0 - Partly cloudy 10 - - - -
31/06:00am 8.4 E 6 7 1029.1 - 0.0 Showers Cloudy 10 - - - -
31/05:30am 7.6 E 6 8 1029.0 - 0.0 - Partly cloudy 10 - - - -
31/05:00am 6.8 ESE 6 7 1028.8 - 0.0 - Partly cloudy 10 - - - -
31/04:30am 6.8 E 6 6 1028.9 - 0.0 - - 10 - - - -
31/04:00am 6.8 ESE 6 7 1028.8 - 0.0 - - 10 - - - -
31/03:30am 6.7 E 5 6 1028.9 - 0.0 - - 10 - - - -
31/03:00am 6.2 ESE 5 6 1028.9 - 0.0 - Mostly clear 10 - - - -
31/02:30am 7.0 SE 5 6 1028.9 - 0.0 - - 10 - - - -
31/02:00am 6.4 SE 4 5 1029.0 - 0.0 - - 10 - - - -
31/01:30am 8.2 SE 7 8 1029.0 - 0.0 - Partly cloudy 10 - - - -
31/01:00am 7.8 SE 6 6 1029.1 - 0.0 - Partly cloudy 10 - - - -
31/12:30am 7.7 ESE 5 5 1029.2 - 0.0 - Cloudy 10 - - - -
31/12:00am 8.2 ESE 5 6 1029.3 - 0.0 - Cloudy 10 - - - -
 
Date/Time
EST
Temp

°C
Wind Pressure Rain
since 9am
mm
Weather Cloud Vis
km
Sea
Height
m
Swell
Dir
 
Speed
knots
Gust
knots
hPa Trend Height
m
Period
s
Dir
30/11:30pm 8.0 E 3 5 1029.4 - 0.0 - Cloudy 10 - - - -
30/11:00pm 8.0 ESE 4 5 1029.4 - 0.0 - Cloudy 10 - - - -
30/10:30pm 8.1 ESE 5 6 1029.3 - 0.0 - Cloudy 10 - - - -
30/10:00pm 7.6 ESE 4 6 1029.3 - 0.0 - Cloudy 10 - - - -
30/09:30pm 6.7 ESE 4 5 1029.0 - 0.0 - Partly cloudy 10 - - - -
30/09:00pm 7.3 ESE 4 5 1028.9 - 0.0 - - 10 - - - -
30/08:30pm 7.7 ESE 4 5 1028.6 - 0.0 - - 10 - - - -
30/08:00pm 7.6 E 3 5 1028.6 - 0.0 - - 10 - - - -
30/07:30pm 7.7 CALM 0 0 1028.5 - 0.0 - Partly cloudy 10 - - - -
30/07:00pm 9.1 E 3 4 1028.2 - 0.0 - - 10 - - - -
30/06:30pm 9.7 NE 5 7 1028.0 - 0.0 - Partly cloudy 10 - - - -
30/06:00pm 10.3 ENE 6 8 1027.7 - 0.0 - Cloudy 10 - - - -
30/05:30pm 10.6 ENE 5 7 1027.4 - 0.0 - Cloudy 10 - - - -
30/05:00pm 10.5 E 6 9 1027.1 - 0.0 - Partly cloudy 10 - - - -
30/04:30pm 10.1 E 4 5 1026.8 - 0.0 - - 10 - - - -
30/04:00pm 10.8 E 7 8 1026.7 - 0.0 - - 10 - - - -
30/03:30pm 11.8 E 7 8 1026.5 - 0.0 - Partly cloudy 10 - - - -
30/03:00pm 12.7 NE 3 5 1026.4 - 0.0 - Partly cloudy 10 - - - -
30/02:30pm 13.4 ESE 7 8 1026.2 - 0.0 - Partly cloudy 10 - - - -
30/02:00pm 13.8 ESE 7 10 1026.3 - 0.0 - Partly cloudy 10 - - - -
30/01:30pm 13.2 ESE 7 9 1026.5 - 0.0 - Partly cloudy 10 - - - -
30/01:00pm 13.2 ESE 8 11 1026.6 - 0.0 - Partly cloudy 10 - - - -
30/12:30pm 13.3 ESE 6 9 1026.8 - 0.0 - Partly cloudy 10 - - - -
30/12:00pm 13.0 E 7 9 1027.1 - 0.0 - Mostly clear 10 - - - -
30/11:30am 12.8 E 6 9 1027.4 - 0.0 - Partly cloudy 10 - - - -
30/11:00am 12.9 ENE 5 9 1027.7 - 0.0 - Partly cloudy 10 - - - -
30/10:30am 12.6 NE 2 6 1027.7 - 0.0 - Partly cloudy 10 - - - -
30/10:00am 11.0 NNE 1 5 1027.5 - 0.0 - Partly cloudy 10 - - - -
30/09:30am 11.3 ENE 3 4 1027.3 - 0.0 - Partly cloudy 10 - - - -
30/09:00am 9.1 SE 2 5 1027.1 - 0.0 - Partly cloudy 10 - - - -
30/08:30am 7.7 CALM 0 0 1026.9 - 0.0 - Cloudy 10 - - - -
30/08:00am 7.2 ENE 2 4 1026.5 - 0.0 - Cloudy 10 - - - -
30/07:30am 7.0 NNW 1 6 1026.3 - 0.0 - Cloudy 10 - - - -
30/07:00am 7.3 E 3 5 1026.1 - 0.0 - Cloudy 10 - - - -
30/06:30am 7.1 ESE 2 5 1025.8 - 0.0 - Cloudy 10 - - - -
30/06:00am 7.0 ESE 4 5 1025.5 - 0.0 - Mostly cloudy 10 - - - -
30/05:30am 7.5 CALM 0 0 1025.2 - 0.0 - Cloudy 10 - - - -
30/05:00am 8.4 SE 3 4 1025.0 - 0.0 - Partly cloudy 10 - - - -
30/04:30am 7.6 SE 4 5 1024.8 - 0.0 - Cloudy 10 - - - -
30/04:00am 7.0 SE 4 5 1024.6 - 0.0 - Cloudy 10 - - - -
30/03:30am 6.8 ESE 4 5 1024.6 - 0.0 - Cloudy 10 - - - -
30/03:00am 6.8 CALM 0 0 1024.5 - 0.0 - Cloudy 10 - - - -
30/02:30am 7.0 SE 1 4 1024.5 - 0.0 - Cloudy 10 - - - -
30/02:00am 7.5 SE 3 4 1024.2 - 0.0 - Cloudy 10 - - - -
30/01:30am 7.9 SE 1 4 1024.0 - 0.0 - Cloudy 10 - - - -
30/01:00am 8.1 E 3 5 1023.9 - 0.0 - Cloudy 10 - - - -
30/12:30am 8.3 CALM 0 0 1023.9 - 0.0 - Cloudy 10 - - - -
30/12:00am 8.5 N 2 4 1023.9 - 0.0 - Cloudy 10 - - - -
 
Date/Time
EST
Temp

°C
Wind Pressure Rain
since 9am
mm
Weather Cloud Vis
km
Sea
Height
m
Swell
Dir
 
Speed
knots
Gust
knots
hPa Trend Height
m
Period
s
Dir
29/11:30pm 8.6 CALM 0 0 1023.7 - 0.0 - Cloudy 10 - - - -
29/11:00pm 8.4 CALM 0 0 1023.6 - 0.0 - Cloudy 10 - - - -
29/10:30pm 8.7 CALM 0 3 1023.6 - 0.0 - Cloudy 10 - - - -
29/10:00pm 8.8 CALM 0 0 1023.5 - 0.0 - Cloudy 10 - - - -
29/09:30pm 8.9 ENE 3 4 1023.4 - 0.0 - Cloudy 10 - - - -
29/09:00pm 8.9 CALM 0 0 1023.1 - 0.0 - Cloudy 10 - - - -
29/08:30pm 9.0 SE 3 5 1022.8 - 0.0 - Cloudy 10 - - - -
29/08:00pm 9.4 S 4 5 1022.8 - 0.0 - Cloudy 10 - - - -
29/07:30pm 10.1 S 4 6 1022.4 - 0.0 - Cloudy 10 - - - -
29/07:00pm 10.4 SSW 8 11 1022.1 - 0.0 - Cloudy 10 - - - -
29/06:30pm 10.6 SSW 6 8 1021.8 - 0.0 - Cloudy 10 - - - -
29/06:00pm 10.6 SSW 6 8 1021.6 - 0.0 - Cloudy 10 - - - -
29/05:30pm 10.7 SW 6 9 1021.1 - 0.0 - Cloudy 10 - - - -
29/05:00pm 10.7 SW 7 8 1021.1 - 0.0 - Cloudy 10 - - - -
29/04:30pm 10.8 WSW 8 10 1020.9 - 0.0 - Cloudy 10 - - - -
29/04:00pm 10.7 SW 9 15 1020.8 - 0.0 - Partly cloudy 10 - - - -
29/03:30pm 11.4 SSW 11 16 1020.4 - 0.0 - Cloudy 10 - - - -
29/03:00pm 11.7 SW 11 15 1020.3 - 0.0 - Cloudy 10 - - - -
29/02:30pm 11.7 SSW 11 15 1020.2 - 0.0 - Cloudy 10 - - - -
29/02:00pm 11.6 SSW 11 16 1020.1 - 0.0 - Cloudy 10 - - - -
29/01:30pm 11.9 SW 11 18 1020.0 - 0.0 - Cloudy 10 - - - -
29/01:00pm 11.6 SW 11 15 1020.1 - 0.0 - Cloudy 10 - - - -
29/12:30pm 11.9 SSW 13 16 1019.9 - 0.0 - Cloudy 10 - - - -
29/12:00pm 12.0 SW 12 16 1020.0 - 0.0 - - - - - - -
29/11:30am 11.9 SSW 12 16 1020.1 - 0.0 - Cloudy - - - - -
29/11:00am 11.8 SSW 12 15 1020.2 - 0.0 - Cloudy - - - - -
29/10:30am 11.6 SSW 12 16 1020.1 - 0.0 - Cloudy - - - - -
29/10:00am 11.5 SW 11 15 1019.9 - 0.0 - Partly cloudy 10 - - - -
29/09:30am 11.3 SSW 14 21 1019.7 - 0.0 - Cloudy 10 - - - -
29/09:00am 11.1 SSW 12 16 1019.3 - 0.4 - Mostly cloudy 10 - - - -
29/08:30am 10.9 SSW 11 15 1018.9 - 0.4 - Cloudy 10 - - - -
29/08:00am 10.7 SW 9 14 1018.6 - 0.4 - Cloudy 10 - - - -
29/07:30am 10.8 SW 12 16 1018.2 - 0.4 - Cloudy 10 - - - -
29/07:00am 10.5 SW 13 19 1018.1 - 0.4 - Cloudy 10 - - - -
29/06:30am 10.6 SSW 13 17 1017.8 - 0.4 - Cloudy 10 - - - -
29/06:00am 11.0 SW 9 14 1017.5 - 0.4 - Cloudy 10 - - - -
29/05:30am 11.1 SW 13 18 1017.3 - 0.4 - Cloudy 10 - - - -
29/05:00am 11.3 SW 13 17 1016.9 - 0.4 - Cloudy 10 - - - -
29/04:30am 11.0 SSW 9 12 1016.6 - 0.4 - Partly cloudy 10 - - - -
29/04:00am 10.6 SSW 12 16 1016.6 - 0.4 - Partly cloudy 10 - - - -
29/03:30am 11.3 SW 13 19 1016.4 - 0.4 - Partly cloudy 10 - - - -
29/03:00am 10.5 SW 11 14 1016.3 - 0.4 - Mostly clear 10 - - - -
29/02:30am 11.0 SW 11 15 1016.2 - 0.4 - Partly cloudy 10 - - - -
29/02:00am 10.8 SW 12 15 1016.1 - 0.4 - Partly cloudy 10 - - - -
29/01:30am 10.7 SW 9 14 1015.9 - 0.4 - Partly cloudy 10 - - - -
29/01:00am 11.1 SSW 13 18 1015.7 - 0.4 - Partly cloudy 10 - - - -
29/12:30am 11.4 SW 13 18 1015.6 - 0.4 - Partly cloudy 10 - - - -
29/12:00am 11.2 SSW 17 23 1015.6 - 0.4 - Cloudy 10 - - - -
 
Date/Time
EST
Temp

°C
Wind Pressure Rain
since 9am
mm
Weather Cloud Vis
km
Sea
Height
m
Swell
Dir
 
Speed
knots
Gust
knots
hPa Trend Height
m
Period
s
Dir
28/11:30pm 11.3 SW 12 18 1015.5 - 0.4 - Partly cloudy 10 - - - -
28/11:00pm 11.2 SW 15 21 1015.5 - 0.4 - Partly cloudy 10 - - - -
28/10:30pm 10.7 SSW 11 18 1015.4 - 0.4 - Partly cloudy 10 - - - -
28/10:00pm 10.7 SW 14 19 1015.5 - 0.4 - Partly cloudy 10 - - - -
28/09:30pm 10.8 SW 14 18 1015.5 - 0.4 - Partly cloudy 10 - - - -
28/09:00pm 10.7 SW 15 20 1015.4 - 0.4 - Mostly clear 10 - - - -
28/08:30pm 11.0 SW 14 20 1015.3 - 0.4 - Partly cloudy 10 - - - -

Other Formats:

Comma delimited format used in spreadsheet applications
http://www.bom.gov.au/fwo/IDT60701/IDT60701.94850.axf

JavaScript Object Notation format (JSON) in row-major order
http://www.bom.gov.au/fwo/IDT60701/IDT60701.94850.json